createdAt,value
2022-12-24T00:01:33.621Z,97299.56
2022-12-24T00:04:00.244Z,97295.22
2022-12-24T00:06:26.879Z,97304.81
2022-12-24T00:08:53.533Z,97305.88
2022-12-24T00:11:21.142Z,97311.13
2022-12-24T00:13:48.427Z,97305.88
2022-12-24T00:16:15.319Z,97306.66
2022-12-24T00:18:46.278Z,97307.44
2022-12-24T00:21:13.735Z,97310.88
2022-12-24T00:23:40.781Z,97311.91
2022-12-24T00:26:07.727Z,97320.41
2022-12-24T00:28:34.366Z,97322.94
2022-12-24T00:31:06.839Z,97323.63
2022-12-24T00:33:33.456Z,97325.94
2022-12-24T00:36:00.248Z,97333.59
2022-12-24T00:38:26.790Z,97327.28
2022-12-24T00:40:58.992Z,97335.44
2022-12-24T00:43:25.670Z,97330.97
2022-12-24T00:45:52.466Z,97327.03
2022-12-24T00:48:19.079Z,97344.34
2022-12-24T00:50:45.896Z,97331.16
2022-12-24T00:53:12.476Z,97337.38
2022-12-24T00:55:39.091Z,97349.84
2022-12-24T00:58:05.676Z,97349.25
2022-12-24T01:00:32.340Z,97346.53
2022-12-24T01:02:59.976Z,97343.94
2022-12-24T01:05:26.696Z,97363.22
2022-12-24T01:07:54.173Z,97355.16
2022-12-24T01:10:21.069Z,97370.84
2022-12-24T01:12:47.837Z,97372.56
2022-12-24T01:15:15.684Z,97388.06
2022-12-24T01:17:42.356Z,97392.66
2022-12-24T01:20:14.436Z,97388.91
2022-12-24T01:22:41.020Z,97402.13
2022-12-24T01:25:07.993Z,97398.72
2022-12-24T01:27:34.590Z,97400.75
2022-12-24T01:30:01.377Z,97405.44
2022-12-24T01:32:27.955Z,97397.56
2022-12-24T01:34:54.515Z,97412.00
2022-12-24T01:37:21.103Z,97417.47
2022-12-24T01:39:47.800Z,97420.09
2022-12-24T01:42:38.795Z,97419.63
2022-12-24T01:45:40.339Z,97426.91
2022-12-24T01:48:16.404Z,97425.22
2022-12-24T01:50:43.653Z,97426.53
2022-12-24T01:53:11.562Z,97432.50
2022-12-24T01:55:38.190Z,97448.19
2022-12-24T01:58:06.786Z,97446.38
2022-12-24T02:00:33.373Z,97451.50
2022-12-24T02:03:00.639Z,97457.53
2022-12-24T02:05:30.684Z,97464.50
2022-12-24T02:07:59.805Z,97459.91
2022-12-24T02:10:26.491Z,97463.56
2022-12-24T02:12:53.630Z,97459.16
2022-12-24T02:15:21.113Z,97470.38
2022-12-24T02:18:04.101Z,97472.50
2022-12-24T02:20:43.486Z,97469.75
2022-12-24T02:23:41.603Z,97476.09
2022-12-24T02:26:47.955Z,97478.66
2022-12-24T02:29:14.532Z,97482.66
2022-12-24T02:31:52.020Z,97482.78
2022-12-24T02:34:23.080Z,97486.72
2022-12-24T02:36:59.946Z,97479.09
2022-12-24T02:39:49.206Z,97491.03
2022-12-24T02:42:20.841Z,97503.50
2022-12-24T02:44:53.172Z,97498.25
2022-12-24T02:47:23.114Z,97501.16
2022-12-24T02:49:49.703Z,97500.97
2022-12-24T02:52:34.100Z,97503.72
2022-12-24T02:55:12.251Z,97507.69
2022-12-24T02:57:53.674Z,97521.03
2022-12-24T03:00:23.123Z,97527.09
2022-12-24T03:03:26.484Z,97532.13
2022-12-24T03:06:05.587Z,97529.53
2022-12-24T03:08:44.163Z,97529.63
2022-12-24T03:11:15.564Z,97533.25
2022-12-24T03:13:44.000Z,97541.09
2022-12-24T03:16:14.135Z,97541.00
2022-12-24T03:18:45.187Z,97550.09
2022-12-24T03:21:18.283Z,97541.97
2022-12-24T03:23:45.145Z,97550.84
2022-12-24T03:26:14.712Z,97552.13
2022-12-24T03:28:41.826Z,97577.31
2022-12-24T03:31:09.574Z,97576.59
2022-12-24T03:33:36.621Z,97579.94
2022-12-24T03:36:04.774Z,97581.56
2022-12-24T03:38:31.694Z,97586.81
2022-12-24T03:40:58.577Z,97595.66
2022-12-24T03:43:25.431Z,97599.34
2022-12-24T03:45:52.509Z,97599.41
2022-12-24T03:48:19.144Z,97616.19
2022-12-24T03:50:45.724Z,97609.16
2022-12-24T03:53:12.388Z,97621.19
2022-12-24T03:55:40.030Z,97631.59
2022-12-24T03:58:07.251Z,97634.53
2022-12-24T04:00:33.819Z,97628.56
2022-12-24T04:03:00.607Z,97635.41
2022-12-24T04:05:27.301Z,97644.22
2022-12-24T04:07:54.013Z,97660.91
2022-12-24T04:10:20.661Z,97652.88
2022-12-24T04:12:47.188Z,97662.75
2022-12-24T04:15:13.818Z,97664.16
2022-12-24T04:17:40.456Z,97667.25
2022-12-24T04:20:07.613Z,97675.28
2022-12-24T04:22:34.206Z,97676.31
2022-12-24T04:25:00.809Z,97684.41
2022-12-24T04:27:30.525Z,97679.72
2022-12-24T04:29:57.579Z,97669.13
2022-12-24T04:32:26.550Z,97672.44
2022-12-24T04:34:54.501Z,97675.56
2022-12-24T04:37:21.118Z,97674.03
2022-12-24T04:39:47.746Z,97673.91
2022-12-24T04:42:14.447Z,97678.81
2022-12-24T04:44:41.054Z,97672.66
2022-12-24T04:47:07.532Z,97674.31
2022-12-24T04:49:34.144Z,97675.38
2022-12-24T04:52:00.671Z,97670.03
2022-12-24T04:54:27.414Z,97677.78
2022-12-24T04:56:54.120Z,97681.13
2022-12-24T04:59:20.721Z,97680.13
2022-12-24T05:01:47.644Z,97696.06
2022-12-24T05:04:14.358Z,97691.09
2022-12-24T05:06:41.119Z,97697.97
2022-12-24T05:09:07.693Z,97694.13
2022-12-24T05:11:34.247Z,97697.28
2022-12-24T05:14:00.760Z,97706.78
2022-12-24T05:16:27.398Z,97714.81
2022-12-24T05:18:55.328Z,97721.50
2022-12-24T05:21:23.677Z,97718.88
2022-12-24T05:24:09.296Z,97720.13
2022-12-24T05:26:41.848Z,97732.59
2022-12-24T05:29:09.937Z,97741.72
2022-12-24T05:31:36.875Z,97746.09
2022-12-24T05:34:03.759Z,97744.50
2022-12-24T05:36:30.351Z,97753.41
2022-12-24T05:38:57.133Z,97766.06
2022-12-24T05:41:23.999Z,97764.31
2022-12-24T05:43:50.813Z,97763.53
2022-12-24T05:46:19.971Z,97774.22
2022-12-24T05:48:47.505Z,97784.88
2022-12-24T05:51:15.586Z,97783.78
2022-12-24T05:53:42.181Z,97791.72
2022-12-24T05:56:12.564Z,97784.25
2022-12-24T05:58:40.604Z,97790.63
2022-12-24T06:01:08.428Z,97793.38
2022-12-24T06:03:35.862Z,97794.13
2022-12-24T06:06:08.230Z,97801.44
2022-12-24T06:08:35.970Z,97799.75
2022-12-24T06:11:06.153Z,97796.47
2022-12-24T06:13:33.210Z,97802.66
2022-12-24T06:16:02.226Z,97810.50
2022-12-24T06:18:30.706Z,97820.16
2022-12-24T06:20:58.435Z,97826.31
2022-12-24T06:23:26.114Z,97821.09
2022-12-24T06:25:52.745Z,97811.34
2022-12-24T06:28:19.425Z,97808.47
2022-12-24T06:30:47.569Z,97819.22
2022-12-24T06:33:15.302Z,97825.47
2022-12-24T06:35:42.097Z,97820.28
2022-12-24T06:38:08.763Z,97833.34
2022-12-24T06:40:35.430Z,97833.56
2022-12-24T06:43:01.886Z,97837.94
2022-12-24T06:45:28.318Z,97838.06
2022-12-24T06:47:54.858Z,97840.81
2022-12-24T06:50:21.282Z,97841.03
2022-12-24T06:52:47.895Z,97847.09
2022-12-24T06:55:14.971Z,97848.09
2022-12-24T06:57:41.572Z,97851.47
2022-12-24T07:00:10.243Z,97851.47
2022-12-24T07:02:41.008Z,97854.06
2022-12-24T07:05:10.418Z,97853.00
2022-12-24T07:07:38.929Z,97856.09
2022-12-24T07:10:06.648Z,97864.53
2022-12-24T07:12:33.815Z,97860.06
2022-12-24T07:15:00.397Z,97865.81
2022-12-24T07:17:27.215Z,97865.72
2022-12-24T07:19:54.075Z,97877.06
2022-12-24T07:22:20.608Z,97878.41
2022-12-24T07:24:47.140Z,97874.00
2022-12-24T07:27:13.798Z,97880.00
2022-12-24T07:29:41.360Z,97883.47
2022-12-24T07:32:08.122Z,97885.97
2022-12-24T07:34:35.067Z,97886.38
2022-12-24T07:37:01.790Z,97890.63
2022-12-24T07:39:28.553Z,97898.34
2022-12-24T07:41:55.091Z,97895.59
2022-12-24T07:44:21.757Z,97908.69
2022-12-24T07:46:48.455Z,97913.03
2022-12-24T07:49:15.104Z,97918.25
2022-12-24T07:51:41.797Z,97918.88
2022-12-24T07:54:08.349Z,97917.22
2022-12-24T07:56:35.326Z,97929.34
2022-12-24T07:59:01.963Z,97934.50
2022-12-24T08:01:28.644Z,97946.94
2022-12-24T08:03:55.533Z,97951.41
2022-12-24T08:06:22.666Z,97953.34
2022-12-24T08:08:49.407Z,97950.22
2022-12-24T08:11:16.965Z,97952.16
2022-12-24T08:13:43.561Z,97961.66
2022-12-24T08:16:10.468Z,97949.59
2022-12-24T08:18:37.200Z,97952.22
2022-12-24T08:21:03.945Z,97953.25
2022-12-24T08:23:30.598Z,97946.13
2022-12-24T08:25:57.128Z,97955.22
2022-12-24T08:28:23.748Z,97945.69
2022-12-24T08:30:51.940Z,97942.13
2022-12-24T08:33:19.237Z,97946.13
2022-12-24T08:35:53.705Z,97932.88
2022-12-24T08:38:20.757Z,97935.00
2022-12-24T08:40:49.994Z,97939.94
2022-12-24T08:43:17.447Z,97941.16
2022-12-24T08:45:44.333Z,97946.06
2022-12-24T08:48:11.331Z,97955.41
2022-12-24T08:50:42.429Z,97951.31
2022-12-24T08:53:10.534Z,97959.09
2022-12-24T08:55:37.672Z,97954.53
2022-12-24T08:58:04.409Z,97969.03
2022-12-24T09:00:31.350Z,97977.84
2022-12-24T09:02:58.414Z,97993.97
2022-12-24T09:05:26.194Z,98003.53
2022-12-24T09:07:53.309Z,97999.25
2022-12-24T09:10:20.239Z,98000.88
2022-12-24T09:12:47.950Z,98004.44
2022-12-24T09:15:14.819Z,98017.50
2022-12-24T09:17:41.976Z,98025.28
2022-12-24T09:20:09.204Z,98025.13
2022-12-24T09:22:37.978Z,98012.69
2022-12-24T09:25:06.465Z,98017.66
2022-12-24T09:27:33.170Z,98020.06
2022-12-24T09:29:59.809Z,98030.19
2022-12-24T09:32:26.556Z,98022.53
2022-12-24T09:34:53.179Z,98026.72
2022-12-24T09:37:19.676Z,98012.22
2022-12-24T09:39:46.303Z,98018.44
2022-12-24T09:42:49.684Z,98018.84
2022-12-24T09:45:19.179Z,98020.75
2022-12-24T09:47:54.316Z,98024.34
2022-12-24T09:50:45.380Z,98035.06
2022-12-24T09:53:43.981Z,98035.63
2022-12-24T09:56:20.674Z,98040.63
2022-12-24T09:58:51.042Z,98048.63
2022-12-24T10:01:18.985Z,98045.66
2022-12-24T10:03:47.366Z,98057.03
2022-12-24T10:06:16.991Z,98064.25
2022-12-24T10:09:14.594Z,98055.69
2022-12-24T10:12:03.670Z,98073.28
2022-12-24T10:15:00.273Z,98065.22
2022-12-24T10:18:07.705Z,98072.63
2022-12-24T10:20:45.820Z,98073.59
2022-12-24T10:23:38.391Z,98076.34
2022-12-24T10:26:19.531Z,98076.63
2022-12-24T10:28:46.169Z,98072.63
2022-12-24T10:31:14.530Z,98076.53
2022-12-24T10:33:43.043Z,98091.66
2022-12-24T10:36:29.516Z,98079.41
2022-12-24T10:38:56.839Z,98073.56
2022-12-24T10:41:26.326Z,98072.94
2022-12-24T10:43:54.207Z,98070.22
2022-12-24T10:46:38.197Z,98077.25
2022-12-24T10:49:07.931Z,98096.44
2022-12-24T10:52:00.101Z,98086.78
2022-12-24T10:54:28.653Z,98079.72
2022-12-24T10:57:01.175Z,98097.53
2022-12-24T10:59:29.258Z,98089.66
2022-12-24T11:01:58.330Z,98100.59
2022-12-24T11:04:30.708Z,98100.59
2022-12-24T11:07:01.169Z,98100.66
2022-12-24T11:09:30.331Z,98097.91
2022-12-24T11:12:02.550Z,98103.47
2022-12-24T11:14:36.791Z,98109.63
2022-12-24T11:17:04.505Z,98112.91
2022-12-24T11:19:34.128Z,98124.06
2022-12-24T11:22:06.528Z,98120.25
2022-12-24T11:24:35.782Z,98114.03
2022-12-24T11:27:41.276Z,98128.97
2022-12-24T11:30:17.115Z,98116.59
2022-12-24T11:32:48.480Z,98105.22
2022-12-24T11:35:23.719Z,98123.72
2022-12-24T11:38:12.243Z,98124.28
2022-12-24T11:40:44.717Z,98125.13
2022-12-24T11:43:17.171Z,98123.19
2022-12-24T11:45:55.718Z,98112.63
2022-12-24T11:48:31.568Z,98123.78
2022-12-24T11:51:04.140Z,98120.06
2022-12-24T11:53:38.760Z,98105.09
2022-12-24T11:56:29.987Z,98091.16
2022-12-24T11:59:09.565Z,98115.78
2022-12-24T12:02:04.342Z,98106.72
2022-12-24T12:04:34.135Z,98112.94
2022-12-24T12:07:17.809Z,98112.25
2022-12-24T12:09:52.188Z,98118.53
2022-12-24T12:12:27.675Z,98113.44
2022-12-24T12:15:05.336Z,98109.09
2022-12-24T12:17:50.619Z,98114.34
2022-12-24T12:20:30.455Z,98124.25
2022-12-24T12:23:07.542Z,98123.13
2022-12-24T12:26:01.003Z,98135.53
2022-12-24T12:28:41.395Z,98126.03
2022-12-24T12:31:19.321Z,98133.91
2022-12-24T12:33:57.790Z,98138.09
2022-12-24T12:36:33.256Z,98135.53
2022-12-24T12:39:00.139Z,98136.25
2022-12-24T12:41:34.255Z,98133.00
2022-12-24T12:44:17.672Z,98137.56
2022-12-24T12:47:16.461Z,98123.56
2022-12-24T12:49:45.819Z,98133.97
2022-12-24T12:52:17.068Z,98141.78
2022-12-24T12:54:55.591Z,98144.41
2022-12-24T12:57:28.566Z,98148.59
2022-12-24T13:00:08.826Z,98153.09
2022-12-24T13:02:57.432Z,98154.81
2022-12-24T13:05:29.825Z,98158.63
2022-12-24T13:08:22.902Z,98155.16
2022-12-24T13:10:58.510Z,98147.03
2022-12-24T13:16:44.699Z,98149.47
2022-12-24T13:19:34.395Z,98157.19
2022-12-24T13:22:05.789Z,98163.78
2022-12-24T13:24:33.662Z,98165.34
2022-12-24T13:27:16.195Z,98169.63
2022-12-24T13:30:10.284Z,98172.41
2022-12-24T13:32:42.321Z,98171.00
2022-12-24T13:35:20.868Z,98181.09
2022-12-24T13:37:51.862Z,98182.44
2022-12-24T13:40:26.707Z,98186.81
2022-12-24T13:42:59.213Z,98203.34
2022-12-24T13:45:28.940Z,98196.09
2022-12-24T13:47:57.818Z,98202.38
2022-12-24T13:50:41.520Z,98207.78
2022-12-24T13:53:29.026Z,98215.97
2022-12-24T13:56:09.093Z,98219.53
2022-12-24T13:58:41.464Z,98224.00
2022-12-24T14:01:15.234Z,98218.13
2022-12-24T14:03:44.255Z,98221.41
2022-12-24T14:06:23.141Z,98227.81
2022-12-24T14:08:56.016Z,98224.47
2022-12-24T14:11:25.941Z,98227.28
2022-12-24T14:14:14.295Z,98235.59
2022-12-24T14:16:59.199Z,98235.97
2022-12-24T14:19:37.105Z,98230.72
2022-12-24T14:22:33.183Z,98229.13
2022-12-24T14:25:03.916Z,98230.16
2022-12-24T14:27:43.669Z,98236.47
2022-12-24T14:30:19.522Z,98234.50
2022-12-24T14:32:46.944Z,98253.09
2022-12-24T14:35:13.396Z,98248.59
2022-12-24T14:37:47.489Z,98245.94
2022-12-24T14:40:44.876Z,98240.72
2022-12-24T14:43:58.305Z,98238.88
2022-12-24T14:46:33.018Z,98240.69
2022-12-24T14:49:27.613Z,98252.94
2022-12-24T14:52:46.037Z,98254.88
2022-12-24T14:55:36.049Z,98255.97
2022-12-24T14:58:28.402Z,98264.81
2022-12-24T15:01:00.987Z,98270.22
2022-12-24T15:03:30.404Z,98274.81
2022-12-24T15:06:04.136Z,98273.00
2022-12-24T15:08:36.140Z,98281.81
2022-12-24T15:11:07.266Z,98281.75
2022-12-24T15:13:40.578Z,98284.38
2022-12-24T15:16:15.389Z,98296.63
2022-12-24T15:18:50.038Z,98301.81
2022-12-24T15:21:29.409Z,98299.94
2022-12-24T15:23:56.309Z,98304.25
2022-12-24T15:26:35.091Z,98309.38
2022-12-24T15:29:13.594Z,98316.56
2022-12-24T15:31:40.246Z,98315.63
2022-12-24T15:34:24.354Z,98310.13
2022-12-24T15:36:52.267Z,98317.34
2022-12-24T15:39:18.870Z,98318.44
2022-12-24T15:42:04.680Z,98317.53
2022-12-24T15:44:37.107Z,98306.34
2022-12-24T15:47:08.689Z,98306.41
2022-12-24T15:49:36.856Z,98302.22
2022-12-24T15:52:06.556Z,98320.78
2022-12-24T15:54:38.162Z,98317.25
2022-12-24T15:57:28.808Z,98318.22
2022-12-24T16:00:00.883Z,98319.34
2022-12-24T16:02:42.071Z,98324.56
2022-12-24T16:05:28.957Z,98319.34
2022-12-24T16:08:08.880Z,98321.97
2022-12-24T16:10:39.633Z,98327.22
2022-12-24T16:13:28.496Z,98332.28
2022-12-24T16:15:59.529Z,98322.81
2022-12-24T16:18:36.952Z,98326.19
2022-12-24T16:21:05.438Z,98339.28
2022-12-24T16:23:56.474Z,98332.44
2022-12-24T16:26:23.325Z,98345.53
2022-12-24T16:28:49.880Z,98343.75
2022-12-24T16:31:31.953Z,98342.84
2022-12-24T16:34:00.380Z,98337.03
2022-12-24T16:36:27.738Z,98347.38
2022-12-24T16:39:12.801Z,98342.97
2022-12-24T16:41:57.841Z,98353.75
2022-12-24T16:44:24.445Z,98358.25
2022-12-24T16:46:53.075Z,98361.84
2022-12-24T16:49:22.612Z,98370.59
2022-12-24T16:51:49.241Z,98364.41
2022-12-24T16:54:16.146Z,98364.47
2022-12-24T16:56:43.860Z,98384.66
2022-12-24T16:59:18.669Z,98389.97
2022-12-24T17:01:46.056Z,98389.13
2022-12-24T17:04:13.753Z,98403.91
2022-12-24T17:06:40.622Z,98394.31
2022-12-24T17:09:09.006Z,98391.63
2022-12-24T17:11:36.209Z,98396.09
2022-12-24T17:14:08.534Z,98397.88
2022-12-24T17:16:37.680Z,98396.16
2022-12-24T17:19:05.168Z,98399.63
2022-12-24T17:21:32.069Z,98407.63
2022-12-24T17:23:58.724Z,98407.72
2022-12-24T17:26:25.464Z,98405.94
2022-12-24T17:28:56.789Z,98410.53
2022-12-24T17:31:24.351Z,98412.19
2022-12-24T17:33:52.499Z,98413.13
2022-12-24T17:36:19.811Z,98413.06
2022-12-24T17:38:48.910Z,98409.63
2022-12-24T17:41:17.593Z,98424.53
2022-12-24T17:43:44.500Z,98416.66
2022-12-24T17:46:17.738Z,98429.78
2022-12-24T17:48:44.856Z,98423.69
2022-12-24T17:51:13.727Z,98420.88
2022-12-24T17:53:42.127Z,98425.34
2022-12-24T17:56:12.362Z,98420.97
2022-12-24T17:58:40.617Z,98424.38
2022-12-24T18:01:11.624Z,98422.72
2022-12-24T18:03:38.367Z,98423.59
2022-12-24T18:06:07.085Z,98434.88
2022-12-24T18:08:34.594Z,98425.34
2022-12-24T18:11:11.178Z,98427.94
2022-12-24T18:13:41.265Z,98440.16
2022-12-24T18:16:26.284Z,98442.88
2022-12-24T18:18:54.020Z,98441.97
2022-12-24T18:21:22.931Z,98445.41
2022-12-24T18:23:51.188Z,98438.59
2022-12-24T18:26:26.209Z,98442.28
2022-12-24T18:28:54.209Z,98446.69
2022-12-24T18:31:21.104Z,98438.94
2022-12-24T18:33:50.069Z,98451.19
2022-12-24T18:36:18.136Z,98459.97
2022-12-24T18:38:52.748Z,98454.94
2022-12-24T18:41:22.118Z,98455.03
2022-12-24T18:43:49.347Z,98447.16
2022-12-24T18:46:18.645Z,98455.97
2022-12-24T18:48:49.319Z,98458.66
2022-12-24T18:51:17.059Z,98453.63
2022-12-24T18:53:43.653Z,98450.13
2022-12-24T18:56:14.850Z,98450.13
2022-12-24T18:58:42.511Z,98450.09
2022-12-24T19:01:18.661Z,98448.38
2022-12-24T19:03:45.783Z,98443.13
2022-12-24T19:06:12.547Z,98453.63
2022-12-24T19:08:57.173Z,98451.03
2022-12-24T19:11:25.189Z,98462.28
2022-12-24T19:13:53.348Z,98463.13
2022-12-24T19:16:21.504Z,98472.72
2022-12-24T19:18:50.836Z,98471.00
2022-12-24T19:21:18.624Z,98468.28
2022-12-24T19:23:46.399Z,98470.97
2022-12-24T19:26:14.501Z,98470.13
2022-12-24T19:28:41.662Z,98474.53
2022-12-24T19:31:22.888Z,98479.81
2022-12-24T19:33:52.348Z,98478.09
2022-12-24T19:36:27.436Z,98482.38
2022-12-24T19:38:54.995Z,98483.25
2022-12-24T19:41:24.700Z,98491.06
2022-12-24T19:43:54.462Z,98492.84
2022-12-24T19:46:24.262Z,98502.38
2022-12-24T19:48:53.355Z,98493.66
2022-12-24T19:51:20.392Z,98499.72
2022-12-24T19:53:48.192Z,98500.59
2022-12-24T19:56:25.268Z,98511.97
2022-12-24T19:58:52.012Z,98513.81
2022-12-24T20:01:21.984Z,98514.75
2022-12-24T20:03:50.123Z,98520.00
2022-12-24T20:06:24.137Z,98523.50
2022-12-24T20:08:50.933Z,98520.00
2022-12-24T20:11:22.332Z,98510.50
2022-12-24T20:13:49.097Z,98509.63
2022-12-24T20:16:22.712Z,98513.09
2022-12-24T20:18:57.070Z,98508.75
2022-12-24T20:21:24.743Z,98513.97
2022-12-24T20:23:52.194Z,98514.84
2022-12-24T20:26:23.981Z,98518.31
2022-12-24T20:28:51.312Z,98517.41
2022-12-24T20:31:20.908Z,98518.31
2022-12-24T20:33:48.005Z,98513.09
2022-12-24T20:36:16.425Z,98514.81
2022-12-24T20:38:46.182Z,98513.06
2022-12-24T20:41:14.432Z,98514.75
2022-12-24T20:43:47.816Z,98514.75
2022-12-24T20:46:22.518Z,98512.97
2022-12-24T20:48:50.121Z,98513.81
2022-12-24T20:51:25.553Z,98509.47
2022-12-24T20:53:53.783Z,98510.31
2022-12-24T20:56:20.758Z,98511.16
2022-12-24T20:58:47.415Z,98513.78
2022-12-24T21:01:21.149Z,98523.38
2022-12-24T21:03:48.195Z,98514.66
2022-12-24T21:06:17.733Z,98525.06
2022-12-24T21:08:46.313Z,98518.06
2022-12-24T21:11:31.580Z,98526.75
2022-12-24T21:13:58.295Z,98531.09
2022-12-24T21:16:24.908Z,98534.56
2022-12-24T21:18:51.619Z,98537.25
2022-12-24T21:21:18.199Z,98539.84
2022-12-24T21:23:44.814Z,98534.63
2022-12-24T21:26:11.444Z,98523.38
2022-12-24T21:28:45.508Z,98525.06
2022-12-24T21:31:13.710Z,98527.69
2022-12-24T21:33:40.848Z,98532.06
2022-12-24T21:36:08.052Z,98526.88
2022-12-24T21:38:35.505Z,98529.44
2022-12-24T21:41:16.177Z,98535.56
2022-12-24T21:43:43.936Z,98551.19
2022-12-24T21:46:14.374Z,98551.19
2022-12-24T21:49:00.257Z,98550.28
2022-12-24T21:51:28.018Z,98553.69
2022-12-24T21:54:13.886Z,98554.56
2022-12-24T21:56:59.887Z,98554.59
2022-12-24T21:59:27.352Z,98556.31
2022-12-24T22:01:55.215Z,98559.81
2022-12-24T22:04:22.310Z,98558.88
2022-12-24T22:07:07.413Z,98561.47
2022-12-24T22:09:52.264Z,98564.91
2022-12-24T22:12:19.249Z,98564.88
2022-12-24T22:14:45.897Z,98563.09
2022-12-24T22:17:12.467Z,98558.72
2022-12-24T22:19:39.026Z,98570.97
2022-12-24T22:22:05.636Z,98573.53
2022-12-24T22:24:32.150Z,98570.91
2022-12-24T22:26:58.789Z,98576.19
2022-12-24T22:29:25.370Z,98581.38
2022-12-24T22:31:52.023Z,98585.69
2022-12-24T22:34:18.604Z,98576.16
2022-12-24T22:36:45.105Z,98569.16
2022-12-24T22:39:11.656Z,98570.00
2022-12-24T22:41:38.196Z,98571.81
2022-12-24T22:44:04.855Z,98566.50
2022-12-24T22:46:31.584Z,98570.06
2022-12-24T22:48:58.137Z,98573.56
2022-12-24T22:51:24.720Z,98578.72
2022-12-24T22:53:51.490Z,98581.44
2022-12-24T22:56:22.881Z,98590.88
2022-12-24T22:58:54.311Z,98591.78
2022-12-24T23:01:41.270Z,98598.75
2022-12-24T23:04:08.027Z,98598.75
2022-12-24T23:06:35.454Z,98597.09
2022-12-24T23:09:04.949Z,98594.50
2022-12-24T23:11:31.615Z,98588.44
2022-12-24T23:14:16.782Z,98597.16
2022-12-24T23:16:43.487Z,98588.50
2022-12-24T23:19:10.775Z,98582.38
2022-12-24T23:21:38.537Z,98583.22
2022-12-24T23:24:05.754Z,98588.44
2022-12-24T23:26:32.317Z,98580.59
2022-12-24T23:28:58.900Z,98578.00
2022-12-24T23:31:26.899Z,98575.41
2022-12-24T23:33:53.734Z,98566.72
2022-12-24T23:36:20.347Z,98572.84
2022-12-24T23:38:48.360Z,98560.66
2022-12-24T23:41:17.036Z,98572.75
2022-12-24T23:43:43.538Z,98579.72
2022-12-24T23:46:13.508Z,98560.53
2022-12-24T23:48:40.185Z,98559.72
2022-12-24T23:51:11.943Z,98550.94
2022-12-24T23:53:39.004Z,98550.91
2022-12-24T23:56:07.056Z,98550.78
2022-12-24T23:58:34.124Z,98547.25
